createdAt,value
2023-01-27T00:00:37.031Z,0.80
2023-01-27T00:03:04.256Z,0.60
2023-01-27T00:05:31.452Z,0.77
2023-01-27T00:07:58.799Z,0.80
2023-01-27T00:10:26.669Z,0.75
2023-01-27T00:13:13.146Z,0.70
2023-01-27T00:15:40.560Z,0.65
2023-01-27T00:18:07.975Z,0.80
2023-01-27T00:20:53.777Z,0.70
2023-01-27T00:23:43.342Z,0.88
2023-01-27T00:26:12.537Z,0.90
2023-01-27T00:28:40.547Z,0.82
2023-01-27T00:31:27.238Z,0.73
2023-01-27T00:33:56.144Z,0.77
2023-01-27T00:36:23.608Z,0.73
2023-01-27T00:38:50.706Z,1.05
2023-01-27T00:41:20.858Z,0.75
2023-01-27T00:43:48.613Z,0.50
2023-01-27T00:46:16.563Z,0.90
2023-01-27T00:48:43.728Z,0.90
2023-01-27T00:51:11.323Z,0.70
2023-01-27T00:53:38.502Z,0.68
2023-01-27T00:56:06.102Z,0.63
2023-01-27T00:58:33.279Z,1.00
2023-01-27T01:01:01.700Z,0.73
2023-01-27T01:03:32.673Z,0.90
2023-01-27T01:06:00.325Z,0.80
2023-01-27T01:08:27.587Z,0.88
2023-01-27T01:10:54.958Z,1.65
2023-01-27T01:13:22.099Z,0.80
2023-01-27T01:15:50.746Z,0.73
2023-01-27T01:18:17.977Z,0.60
2023-01-27T01:20:46.018Z,0.90
2023-01-27T01:23:13.744Z,0.60
2023-01-27T01:25:40.998Z,0.60
2023-01-27T01:28:08.902Z,0.90
2023-01-27T01:30:36.628Z,0.70
2023-01-27T01:33:04.446Z,0.90
2023-01-27T01:35:31.985Z,0.50
2023-01-27T01:38:03.221Z,0.60
2023-01-27T01:40:30.361Z,0.52
2023-01-27T01:42:58.995Z,0.85
2023-01-27T01:45:36.623Z,0.75
2023-01-27T01:48:09.624Z,0.90
2023-01-27T01:50:37.082Z,0.80
2023-01-27T01:53:05.477Z,0.63
2023-01-27T01:55:34.335Z,0.50
2023-01-27T01:58:01.875Z,0.73
2023-01-27T02:00:29.057Z,0.60
2023-01-27T02:02:56.718Z,0.70
2023-01-27T02:05:28.784Z,0.70
2023-01-27T02:07:57.368Z,0.93
2023-01-27T02:10:24.625Z,0.43
2023-01-27T02:12:52.006Z,0.80
2023-01-27T02:15:21.705Z,0.77
2023-01-27T02:17:49.348Z,0.80
2023-01-27T02:20:17.209Z,1.00
2023-01-27T02:23:08.976Z,0.68
2023-01-27T02:25:36.089Z,1.00
2023-01-27T02:28:03.991Z,0.85
2023-01-27T02:30:31.237Z,0.82
2023-01-27T02:32:58.603Z,0.68
2023-01-27T02:35:37.341Z,0.80
2023-01-27T02:38:05.282Z,0.70
2023-01-27T02:40:32.886Z,0.57
2023-01-27T02:43:00.462Z,0.70
2023-01-27T02:45:29.110Z,0.80
2023-01-27T02:47:57.430Z,0.75
2023-01-27T02:50:25.787Z,0.68
2023-01-27T02:52:52.935Z,0.70
2023-01-27T02:55:20.047Z,0.50
2023-01-27T02:57:47.160Z,0.60
2023-01-27T03:00:14.527Z,0.70
2023-01-27T03:02:42.946Z,0.70
2023-01-27T03:05:10.301Z,1.20
2023-01-27T03:07:37.411Z,0.60
2023-01-27T03:10:04.830Z,0.57
2023-01-27T03:12:32.002Z,0.80
2023-01-27T03:15:17.953Z,0.63
2023-01-27T03:18:03.750Z,0.60
2023-01-27T03:20:33.409Z,0.68
2023-01-27T03:23:00.523Z,0.70
2023-01-27T03:25:27.713Z,0.63
2023-01-27T03:27:54.838Z,0.82
2023-01-27T03:30:22.326Z,0.68
2023-01-27T03:32:49.542Z,1.00
2023-01-27T03:35:16.955Z,0.68
2023-01-27T03:38:02.974Z,0.90
2023-01-27T03:40:49.401Z,0.60
2023-01-27T03:43:35.302Z,0.70
2023-01-27T03:46:20.861Z,0.75
2023-01-27T03:48:52.099Z,0.90
2023-01-27T03:51:20.591Z,0.82
2023-01-27T03:53:47.815Z,0.73
2023-01-27T03:56:15.441Z,1.00
2023-01-27T03:58:43.227Z,0.70
2023-01-27T04:01:16.607Z,0.80
2023-01-27T04:04:02.625Z,0.55
2023-01-27T04:06:49.671Z,0.77
2023-01-27T04:09:23.694Z,0.80
2023-01-27T04:12:00.401Z,0.70
2023-01-27T04:14:34.172Z,0.80
2023-01-27T04:17:02.564Z,0.65
2023-01-27T04:19:29.700Z,0.70
2023-01-27T04:21:57.828Z,0.70
2023-01-27T04:24:25.399Z,0.85
2023-01-27T04:26:54.800Z,0.77
2023-01-27T04:29:24.270Z,0.77
2023-01-27T04:31:51.820Z,0.63
2023-01-27T04:34:19.355Z,0.90
2023-01-27T04:36:47.486Z,0.90
2023-01-27T04:39:15.294Z,0.80
2023-01-27T04:41:42.911Z,0.60
2023-01-27T04:44:10.552Z,0.65
2023-01-27T04:46:38.094Z,0.80
2023-01-27T04:49:05.888Z,0.80
2023-01-27T04:51:33.219Z,0.80
2023-01-27T04:54:00.772Z,0.80
2023-01-27T04:56:38.046Z,0.70
2023-01-27T04:59:07.162Z,0.70
2023-01-27T05:01:34.424Z,0.90
2023-01-27T05:04:01.648Z,0.80
2023-01-27T05:06:29.112Z,0.70
2023-01-27T05:08:57.202Z,0.90
2023-01-27T05:11:24.483Z,1.00
2023-01-27T05:13:51.610Z,0.88
2023-01-27T05:16:18.923Z,0.88
2023-01-27T05:18:47.600Z,0.70
2023-01-27T05:21:25.209Z,0.73
2023-01-27T05:23:52.386Z,0.95
2023-01-27T05:26:21.222Z,0.80
2023-01-27T05:28:49.203Z,0.60
2023-01-27T05:31:18.529Z,1.00
2023-01-27T05:33:46.695Z,0.98
2023-01-27T05:36:15.139Z,1.00
2023-01-27T05:38:44.402Z,0.80
2023-01-27T05:41:12.309Z,0.77
2023-01-27T05:43:40.349Z,0.90
2023-01-27T05:46:18.475Z,0.80
2023-01-27T05:48:46.749Z,0.80
2023-01-27T05:51:15.264Z,0.70
2023-01-27T05:53:42.755Z,0.80
2023-01-27T05:56:10.689Z,0.70
2023-01-27T05:58:38.432Z,0.90
2023-01-27T06:01:12.934Z,0.90
2023-01-27T06:03:40.712Z,0.82
2023-01-27T06:06:08.271Z,0.80
2023-01-27T06:08:36.056Z,1.00
2023-01-27T06:11:03.518Z,0.82
2023-01-27T06:13:30.734Z,0.80
2023-01-27T06:15:58.070Z,0.80
2023-01-27T06:18:25.228Z,0.80
2023-01-27T06:20:52.564Z,0.65
2023-01-27T06:23:19.778Z,1.00
2023-01-27T06:25:48.203Z,0.80
2023-01-27T06:28:28.231Z,0.73
2023-01-27T06:30:56.605Z,0.90
2023-01-27T06:33:23.906Z,0.90
2023-01-27T06:35:51.203Z,0.70
2023-01-27T06:38:18.382Z,0.75
2023-01-27T06:40:45.550Z,0.85
2023-01-27T06:43:13.823Z,1.08
2023-01-27T06:45:41.331Z,0.82
2023-01-27T06:48:09.038Z,0.90
2023-01-27T06:50:36.811Z,0.80
2023-01-27T06:53:07.295Z,0.90
2023-01-27T06:55:35.676Z,0.90
2023-01-27T06:58:03.370Z,0.77
2023-01-27T07:00:30.741Z,0.80
2023-01-27T07:02:58.130Z,0.73
2023-01-27T07:05:25.406Z,0.80
2023-01-27T07:07:52.741Z,0.90
2023-01-27T07:10:20.276Z,0.80
2023-01-27T07:12:47.544Z,0.70
2023-01-27T07:15:15.038Z,0.65
2023-01-27T07:17:42.405Z,0.85
2023-01-27T07:20:12.598Z,0.57
2023-01-27T07:22:40.103Z,0.70
2023-01-27T07:25:07.554Z,0.80
2023-01-27T07:27:34.784Z,0.70
2023-01-27T07:30:01.989Z,0.90
2023-01-27T07:32:29.227Z,0.80
2023-01-27T07:34:56.370Z,0.80
2023-01-27T07:37:23.745Z,0.50
2023-01-27T07:39:50.936Z,0.70
2023-01-27T07:42:18.129Z,0.60
2023-01-27T07:44:45.694Z,0.60
2023-01-27T07:47:13.871Z,0.70
2023-01-27T07:49:41.076Z,0.47
2023-01-27T07:52:08.183Z,0.80
2023-01-27T07:54:35.271Z,0.82
2023-01-27T07:57:02.545Z,0.60
2023-01-27T07:59:32.285Z,0.70
2023-01-27T08:01:59.382Z,0.60
2023-01-27T08:04:31.593Z,0.60
2023-01-27T08:07:02.595Z,0.65
2023-01-27T08:09:29.739Z,0.60
2023-01-27T08:11:57.952Z,0.60
2023-01-27T08:14:25.070Z,0.80
2023-01-27T08:16:53.669Z,0.90
2023-01-27T08:19:21.036Z,0.70
2023-01-27T08:21:48.178Z,0.65
2023-01-27T08:24:15.410Z,0.60
2023-01-27T08:26:42.847Z,0.60
2023-01-27T08:29:10.091Z,0.70
2023-01-27T08:31:37.276Z,0.50
2023-01-27T08:34:04.435Z,0.50
2023-01-27T08:36:31.607Z,0.80
2023-01-27T08:38:58.848Z,0.77
2023-01-27T08:41:27.087Z,0.57
2023-01-27T08:43:55.902Z,0.80
2023-01-27T08:46:23.328Z,0.55
2023-01-27T08:48:51.797Z,0.80
2023-01-27T08:51:19.206Z,0.50
2023-01-27T08:53:46.397Z,0.60
2023-01-27T08:56:14.892Z,0.40
2023-01-27T08:58:42.435Z,0.60
2023-01-27T09:01:10.091Z,0.63
2023-01-27T09:03:37.433Z,0.65
2023-01-27T09:06:05.145Z,0.47
2023-01-27T09:08:32.362Z,0.50
2023-01-27T09:10:59.567Z,0.40
2023-01-27T09:13:28.286Z,0.60
2023-01-27T09:15:55.750Z,0.60
2023-01-27T09:18:22.893Z,0.60
2023-01-27T09:20:50.067Z,0.50
2023-01-27T09:23:17.269Z,0.60
2023-01-27T09:25:44.444Z,0.70
2023-01-27T09:28:17.228Z,0.50
2023-01-27T09:30:47.520Z,0.52
2023-01-27T09:33:15.702Z,0.60
2023-01-27T09:35:46.205Z,0.52
2023-01-27T09:38:15.028Z,0.68
2023-01-27T09:40:51.376Z,0.50
2023-01-27T09:43:18.746Z,0.40
2023-01-27T09:46:07.005Z,0.50
2023-01-27T09:48:37.197Z,0.47
2023-01-27T09:51:07.085Z,0.70
2023-01-27T09:53:51.485Z,0.60
2023-01-27T09:56:38.828Z,0.52
2023-01-27T09:59:15.224Z,0.55
2023-01-27T10:01:43.039Z,0.68
2023-01-27T10:04:10.378Z,0.60
2023-01-27T10:06:46.145Z,0.50
2023-01-27T10:09:38.658Z,0.40
2023-01-27T10:12:11.696Z,0.50
2023-01-27T10:14:38.804Z,0.70
2023-01-27T10:17:08.535Z,0.40
2023-01-27T10:19:41.989Z,0.50
2023-01-27T10:22:09.231Z,0.50
2023-01-27T10:25:05.328Z,0.40
2023-01-27T10:27:35.876Z,0.57
2023-01-27T10:30:05.868Z,0.65
2023-01-27T10:32:32.960Z,0.57
2023-01-27T10:35:05.935Z,0.40
2023-01-27T10:37:33.054Z,0.50
2023-01-27T10:40:15.844Z,0.55
2023-01-27T10:43:02.220Z,0.50
2023-01-27T10:45:39.883Z,0.60
2023-01-27T10:48:18.948Z,0.47
2023-01-27T10:50:48.367Z,0.50
2023-01-27T10:53:15.479Z,0.70
2023-01-27T10:56:00.946Z,0.50
2023-01-27T10:58:30.587Z,0.47
2023-01-27T11:01:19.682Z,0.70
2023-01-27T11:04:03.342Z,0.55
2023-01-27T11:06:32.502Z,0.50
2023-01-27T11:09:05.677Z,0.50
2023-01-27T11:11:45.414Z,0.45
2023-01-27T11:14:18.701Z,0.50
2023-01-27T11:16:48.732Z,0.50
2023-01-27T11:19:31.935Z,0.60
2023-01-27T11:22:07.870Z,0.40
2023-01-27T11:24:52.575Z,0.60
2023-01-27T11:27:27.845Z,0.45
2023-01-27T11:30:07.773Z,0.60
2023-01-27T11:32:53.713Z,0.50
2023-01-27T11:35:22.044Z,0.40
2023-01-27T11:37:51.244Z,0.40
2023-01-27T11:40:18.405Z,0.50
2023-01-27T11:42:45.792Z,0.70
2023-01-27T11:45:16.777Z,0.60
2023-01-27T11:47:44.841Z,0.73
2023-01-27T11:50:20.667Z,0.75
2023-01-27T11:52:50.681Z,0.90
2023-01-27T11:55:20.372Z,0.80
2023-01-27T11:57:51.595Z,0.88
2023-01-27T12:00:18.983Z,0.90
2023-01-27T12:02:50.113Z,1.10
2023-01-27T12:05:22.630Z,0.80
2023-01-27T12:07:57.064Z,1.20
2023-01-27T12:10:24.289Z,0.70
2023-01-27T12:12:53.342Z,0.88
2023-01-27T12:15:20.655Z,0.90
2023-01-27T12:17:56.370Z,0.80
2023-01-27T12:20:23.462Z,0.80
2023-01-27T12:22:52.626Z,1.10
2023-01-27T12:25:25.486Z,1.00
2023-01-27T12:27:56.783Z,0.73
2023-01-27T12:30:25.578Z,0.70
2023-01-27T12:32:53.867Z,1.10
2023-01-27T12:35:30.314Z,1.10
2023-01-27T12:38:02.635Z,0.80
2023-01-27T12:40:30.706Z,0.90
2023-01-27T12:43:07.205Z,0.90
2023-01-27T12:45:41.026Z,0.80
2023-01-27T12:48:12.709Z,0.70
2023-01-27T12:50:41.423Z,0.82
2023-01-27T12:53:16.040Z,0.70
2023-01-27T12:55:56.547Z,0.93
2023-01-27T12:58:29.896Z,0.63
2023-01-27T13:00:57.853Z,0.80
2023-01-27T13:03:25.447Z,0.90
2023-01-27T13:05:56.996Z,0.70
2023-01-27T13:08:25.371Z,0.77
2023-01-27T13:10:57.958Z,0.75
2023-01-27T13:13:27.025Z,0.70
2023-01-27T13:15:56.587Z,0.80
2023-01-27T13:18:24.302Z,0.90
2023-01-27T13:20:54.454Z,0.88
2023-01-27T13:23:23.071Z,0.80
2023-01-27T13:26:05.678Z,0.70
2023-01-27T13:28:51.128Z,0.60
2023-01-27T13:31:30.385Z,0.77
2023-01-27T13:34:06.806Z,0.60
2023-01-27T13:36:48.007Z,0.93
2023-01-27T13:39:19.713Z,0.70
2023-01-27T13:41:49.610Z,0.65
2023-01-27T13:44:28.372Z,0.70
2023-01-27T13:46:56.937Z,0.80
2023-01-27T13:49:32.601Z,0.40
2023-01-27T13:52:02.292Z,0.70
2023-01-27T13:54:35.638Z,0.40
2023-01-27T13:57:08.626Z,0.60
2023-01-27T14:00:08.171Z,0.70
2023-01-27T14:02:53.669Z,0.57
2023-01-27T14:05:29.918Z,0.43
2023-01-27T14:08:16.979Z,0.70
2023-01-27T14:11:02.677Z,0.50
2023-01-27T14:13:44.587Z,0.50
2023-01-27T14:16:22.766Z,0.70
2023-01-27T14:18:57.685Z,0.60
2023-01-27T14:21:48.841Z,0.55
2023-01-27T14:24:38.049Z,0.55
2023-01-27T14:27:24.003Z,0.65
2023-01-27T14:30:03.537Z,1.00
2023-01-27T14:32:30.679Z,0.70
2023-01-27T14:35:05.711Z,0.47
2023-01-27T14:40:18.491Z,0.80
2023-01-27T14:42:48.642Z,0.50
2023-01-27T14:45:27.398Z,0.70
2023-01-27T14:47:54.488Z,0.60
2023-01-27T14:50:34.562Z,0.52
2023-01-27T14:53:16.738Z,0.60
2023-01-27T14:55:56.698Z,0.60
2023-01-27T14:58:50.113Z,0.77
2023-01-27T15:01:35.895Z,0.80
2023-01-27T15:04:05.244Z,0.57
2023-01-27T15:06:38.440Z,0.57
2023-01-27T15:09:25.871Z,0.50
2023-01-27T15:14:22.903Z,0.80
2023-01-27T15:17:15.014Z,0.52
2023-01-27T15:19:44.943Z,0.60
2023-01-27T15:22:31.366Z,0.50
2023-01-27T15:25:01.115Z,0.70
2023-01-27T15:27:28.916Z,0.50
2023-01-27T15:29:56.198Z,0.47
2023-01-27T15:32:27.430Z,0.50
2023-01-27T15:35:15.070Z,0.50
2023-01-27T15:38:08.493Z,0.63
2023-01-27T15:40:54.499Z,0.50
2023-01-27T15:43:23.495Z,0.65
2023-01-27T15:48:22.619Z,0.68
2023-01-27T15:51:10.033Z,0.60
2023-01-27T15:56:08.216Z,0.40
2023-01-27T15:58:51.506Z,0.50
2023-01-27T16:01:29.320Z,0.50
2023-01-27T16:04:07.996Z,0.60
2023-01-27T16:06:35.767Z,0.50
2023-01-27T16:09:07.696Z,0.75
2023-01-27T16:11:36.449Z,0.50
2023-01-27T16:14:12.617Z,0.57
2023-01-27T16:16:40.755Z,0.60
2023-01-27T16:19:11.280Z,0.52
2023-01-27T16:21:44.169Z,0.45
2023-01-27T16:24:34.706Z,0.60
2023-01-27T16:27:04.742Z,0.75
2023-01-27T16:29:50.702Z,0.77
2023-01-27T16:32:22.599Z,0.50
2023-01-27T16:34:51.699Z,0.90
2023-01-27T16:37:23.382Z,0.70
2023-01-27T16:39:53.993Z,0.60
2023-01-27T16:42:27.572Z,0.60
2023-01-27T16:44:59.497Z,0.40
2023-01-27T16:47:29.460Z,0.50
2023-01-27T16:49:56.918Z,0.70
2023-01-27T16:52:40.862Z,0.68
2023-01-27T16:55:19.548Z,0.68
2023-01-27T16:57:46.676Z,0.60
2023-01-27T17:00:21.287Z,0.77
2023-01-27T17:02:48.838Z,0.68
2023-01-27T17:05:18.232Z,0.90
2023-01-27T17:08:04.051Z,1.42
2023-01-27T17:10:35.377Z,0.93
2023-01-27T17:13:03.319Z,1.05
2023-01-27T17:15:34.604Z,1.40
2023-01-27T17:18:03.221Z,1.55
2023-01-27T17:20:34.397Z,1.33
2023-01-27T17:23:03.962Z,1.50
2023-01-27T17:25:35.675Z,1.27
2023-01-27T17:28:05.556Z,2.13
2023-01-27T17:30:39.848Z,1.55
2023-01-27T17:33:08.168Z,1.50
2023-01-27T17:35:37.402Z,1.25
2023-01-27T17:38:05.598Z,1.20
2023-01-27T17:40:36.605Z,1.40
2023-01-27T17:43:19.152Z,1.20
2023-01-27T17:45:47.284Z,1.77
2023-01-27T17:48:15.866Z,1.40
2023-01-27T17:50:45.855Z,1.20
2023-01-27T17:53:13.496Z,1.45
2023-01-27T17:55:40.666Z,1.20
2023-01-27T17:58:11.263Z,1.30
2023-01-27T18:00:40.389Z,1.17
2023-01-27T18:03:17.815Z,1.40
2023-01-27T18:05:46.005Z,1.10
2023-01-27T18:08:13.138Z,1.35
2023-01-27T18:10:44.063Z,1.50
2023-01-27T18:13:34.612Z,1.13
2023-01-27T18:16:02.903Z,1.20
2023-01-27T18:18:29.978Z,1.15
2023-01-27T18:21:00.093Z,1.30
2023-01-27T18:23:28.568Z,1.20
2023-01-27T18:26:04.721Z,1.27
2023-01-27T18:28:34.203Z,1.17
2023-01-27T18:31:01.904Z,1.42
2023-01-27T18:33:29.552Z,1.25
2023-01-27T18:35:57.854Z,1.33
2023-01-27T18:38:25.015Z,1.30
2023-01-27T18:40:52.400Z,1.40
2023-01-27T18:43:19.647Z,1.23
2023-01-27T18:45:47.324Z,1.10
2023-01-27T18:48:16.993Z,1.15
2023-01-27T18:50:45.929Z,1.20
2023-01-27T18:53:17.550Z,1.00
2023-01-27T18:55:44.936Z,1.10
2023-01-27T18:58:12.895Z,1.10
2023-01-27T19:00:40.115Z,1.13
2023-01-27T19:03:12.259Z,1.00
2023-01-27T19:05:40.564Z,1.25
2023-01-27T19:08:07.744Z,1.10
2023-01-27T19:10:35.360Z,1.48
2023-01-27T19:13:03.341Z,1.20
2023-01-27T19:15:38.291Z,1.40
2023-01-27T19:18:10.102Z,1.00
2023-01-27T19:20:37.347Z,1.20
2023-01-27T19:23:05.188Z,0.95
2023-01-27T19:25:32.382Z,1.33
2023-01-27T19:28:03.958Z,1.25
2023-01-27T19:30:38.862Z,1.20
2023-01-27T19:33:17.388Z,1.38
2023-01-27T19:35:46.003Z,1.38
2023-01-27T19:38:13.467Z,1.20
2023-01-27T19:40:41.064Z,1.30
2023-01-27T19:43:10.604Z,1.40
2023-01-27T19:45:38.069Z,1.05
2023-01-27T19:48:06.505Z,1.35
2023-01-27T19:50:33.691Z,1.30
2023-01-27T19:53:00.965Z,1.30
2023-01-27T19:55:28.208Z,1.00
2023-01-27T19:57:55.580Z,1.20
2023-01-27T20:00:27.928Z,1.20
2023-01-27T20:02:55.456Z,1.58
2023-01-27T20:05:23.636Z,1.35
2023-01-27T20:07:51.751Z,1.40
2023-01-27T20:10:20.735Z,1.45
2023-01-27T20:15:16.616Z,1.92
2023-01-27T20:20:11.369Z,1.60
2023-01-27T20:22:38.643Z,1.20
2023-01-27T20:25:06.000Z,1.85
2023-01-27T20:27:33.367Z,1.25
2023-01-27T20:30:00.620Z,1.30
2023-01-27T20:32:28.070Z,1.48
2023-01-27T20:34:59.121Z,1.67
2023-01-27T20:37:26.722Z,1.60
2023-01-27T20:39:54.355Z,1.33
2023-01-27T20:42:21.577Z,1.40
2023-01-27T20:44:48.767Z,1.83
2023-01-27T20:47:18.624Z,1.42
2023-01-27T20:49:45.809Z,1.75
2023-01-27T20:52:13.231Z,1.45
2023-01-27T20:54:40.371Z,1.33
2023-01-27T20:57:07.625Z,1.45
2023-01-27T20:59:34.714Z,1.20
2023-01-27T21:02:01.849Z,1.40
2023-01-27T21:04:29.035Z,1.60
2023-01-27T21:06:57.144Z,1.27
2023-01-27T21:09:24.226Z,1.95
2023-01-27T21:11:51.365Z,2.03
2023-01-27T21:14:18.623Z,1.70
2023-01-27T21:16:45.864Z,1.30
2023-01-27T21:19:13.081Z,1.45
2023-01-27T21:21:40.356Z,1.67
2023-01-27T21:24:07.667Z,1.63
2023-01-27T21:26:36.690Z,1.50
2023-01-27T21:31:31.106Z,1.65
2023-01-27T21:34:00.295Z,2.10
2023-01-27T21:36:27.455Z,1.38
2023-01-27T21:38:54.880Z,1.45
2023-01-27T21:41:41.727Z,1.42
2023-01-27T21:44:35.877Z,1.23
2023-01-27T21:47:03.694Z,1.67
2023-01-27T21:49:30.822Z,1.45
2023-01-27T21:51:57.928Z,0.90
2023-01-27T21:54:25.143Z,1.40
2023-01-27T21:56:52.257Z,1.50
2023-01-27T21:59:19.392Z,1.02
2023-01-27T22:01:46.535Z,1.20
2023-01-27T22:04:13.939Z,1.10
2023-01-27T22:06:41.112Z,1.00
2023-01-27T22:09:08.216Z,1.50
2023-01-27T22:11:35.313Z,0.88
2023-01-27T22:14:02.419Z,0.93
2023-01-27T22:16:29.682Z,0.80
2023-01-27T22:18:56.899Z,1.20
2023-01-27T22:21:24.028Z,1.35
2023-01-27T22:23:51.182Z,1.00
2023-01-27T22:26:20.667Z,1.05
2023-01-27T22:28:48.455Z,1.00
2023-01-27T22:31:15.704Z,0.80
2023-01-27T22:33:42.867Z,0.90
2023-01-27T22:36:11.099Z,1.00
2023-01-27T22:38:38.890Z,0.98
2023-01-27T22:41:06.110Z,0.80
2023-01-27T22:43:33.277Z,1.00
2023-01-27T22:46:02.227Z,1.58
2023-01-27T22:50:56.981Z,0.90
2023-01-27T22:53:24.193Z,0.85
2023-01-27T22:56:01.825Z,1.00
2023-01-27T22:58:29.896Z,0.88
2023-01-27T23:00:57.384Z,0.93
2023-01-27T23:03:25.062Z,1.33
2023-01-27T23:05:52.162Z,0.93
2023-01-27T23:08:20.845Z,0.80
2023-01-27T23:10:48.297Z,1.23
2023-01-27T23:13:15.717Z,1.05
2023-01-27T23:15:42.851Z,0.80
2023-01-27T23:18:12.979Z,1.00
2023-01-27T23:20:40.180Z,1.15
2023-01-27T23:23:07.775Z,1.10
2023-01-27T23:25:40.317Z,1.17
2023-01-27T23:28:07.730Z,0.90
2023-01-27T23:30:34.907Z,0.95
2023-01-27T23:33:02.097Z,1.23
2023-01-27T23:35:29.572Z,0.77
2023-01-27T23:37:56.694Z,0.93
2023-01-27T23:40:23.800Z,1.17
2023-01-27T23:42:50.906Z,0.82
2023-01-27T23:45:18.104Z,1.58
2023-01-27T23:47:45.234Z,1.27
2023-01-27T23:50:12.397Z,0.90
2023-01-27T23:52:39.546Z,1.10
2023-01-27T23:55:07.841Z,0.90
2023-01-27T23:57:34.960Z,0.95
